Long Hua — VRFR5 — position and weather

sailwx.info

Track history (hours):
 
Tides and Currents Weather Stations Pressure Air Temp Water Temp Dewpoint Dewpoint Depression Visibility Wind Speed Wind Dir Waves Ship Positions

Long Hua

Last reported at 2016-Aug-26 21:29 UTC. Time now 2016-Aug-29 05:24 UTC.
Position N 24°36' E 119°16'.

Length 180 m; draft 9.3 m.

Type: Cargo ship. MMSI: 477622800.

Date/timePositionNaut miles runAvg speedWind from/ knotsBaromVisibWave heightAir tempDewpointWater temp
2016-Aug-26 21:29N 24°36' E 119°16'1510.7
2016-Aug-26 20:07N 24°31' E 119°01'610.4
2016-Aug-26 19:33N 24°29' E 118°54'1211.2
2016-Aug-26 18:28N 24°25' E 118°42'1010.8
2016-Aug-26 17:33N 24°21' E 118°32'1111.2
2016-Aug-26 16:33N 24°21' E 118°20'1110.9
2016-Aug-26 15:33N 24°22' E 118°08'6 5.6
2016-Aug-26 14:32N 24°25' E 118°03'0 0.0
2016-Aug-26 13:29N 24°25' E 118°03'0 0.0
2016-Aug-26 12:32N 24°25' E 118°03'0 0.0
2016-Aug-26 11:32N 24°25' E 118°03'0 0.0
2016-Aug-26 10:32N 24°25' E 118°03'0 0.0
2016-Aug-26 09:32N 24°25' E 118°03'0 0.0
2016-Aug-26 08:32N 24°25' E 118°03'0 0.0
2016-Aug-26 07:33N 24°25' E 118°03'0 0.0
2016-Aug-26 06:32N 24°25' E 118°03'0 0.0
2016-Aug-26 04:32N 24°25' E 118°03'0 0.0
2016-Aug-26 03:32N 24°25' E 118°03'0 0.0
2016-Aug-26 02:33N 24°25' E 118°03'0 0.0
2016-Aug-26 01:32N 24°25' E 118°03'0 0.0
2016-Aug-26 00:26N 24°25' E 118°03'0 0.0
2016-Aug-25 23:32N 24°25' E 118°03'0 0.0
2016-Aug-25 22:32N 24°25' E 118°03'0 0.0
2016-Aug-25 21:32N 24°25' E 118°03'0 0.0
2016-Aug-25 20:32N 24°25' E 118°03'0 0.0
2016-Aug-25 19:32N 24°25' E 118°03'0 0.0
2016-Aug-25 18:32N 24°25' E 118°03'0 0.0
2016-Aug-25 17:32N 24°25' E 118°03'0 0.0
2016-Aug-25 16:32N 24°25' E 118°03'0 0.0
2016-Aug-25 15:32N 24°25' E 118°03'0 0.0
2016-Aug-25 14:32N 24°25' E 118°03'0 0.0
2016-Aug-25 13:32N 24°25' E 118°03'0 0.0
2016-Aug-25 12:32N 24°25' E 118°03'0 0.0
2016-Aug-25 11:32N 24°25' E 118°03'0 0.0
2016-Aug-25 10:32N 24°25' E 118°03'0 0.0
2016-Aug-25 09:32N 24°25' E 118°03'0 0.0
2016-Aug-25 08:32N 24°25' E 118°03'0 0.0
2016-Aug-25 07:32N 24°25' E 118°03'0 0.0
2016-Aug-25 06:32N 24°25' E 118°03'0 0.0
2016-Aug-25 04:32N 24°25' E 118°03'0 0.0
2016-Aug-25 03:32N 24°25' E 118°03'0 0.0
2016-Aug-25 02:32N 24°25' E 118°03'0 0.0
2016-Aug-25 01:32N 24°25' E 118°03'0 0.0
2016-Aug-25 00:32N 24°25' E 118°03'0 0.0
2016-Aug-24 23:32N 24°25' E 118°03'0 0.0
2016-Aug-24 22:32N 24°25' E 118°03'0 0.0
2016-Aug-24 21:32N 24°25' E 118°03'0 0.0
2016-Aug-24 20:32N 24°25' E 118°03'0 0.0
2016-Aug-24 19:32N 24°25' E 118°03'0 0.0
2016-Aug-24 18:32N 24°25' E 118°03'0 0.0
2016-Aug-24 17:32N 24°25' E 118°03'0 0.0
2016-Aug-24 16:32N 24°25' E 118°03'0 0.0
2016-Aug-24 15:32N 24°25' E 118°03'0 0.0
2016-Aug-24 14:32N 24°25' E 118°03'0 0.0
2016-Aug-24 13:29N 24°25' E 118°03'0 0.0
2016-Aug-24 12:32N 24°25' E 118°03'0 0.0
2016-Aug-24 11:32N 24°25' E 118°03'0 0.0
2016-Aug-24 10:32N 24°25' E 118°03'0 0.0
2016-Aug-24 09:32N 24°25' E 118°03'0 0.0
2016-Aug-24 08:32N 24°25' E 118°03'0 0.0
2016-Aug-24 07:32N 24°25' E 118°03'4 3.8
2016-Aug-24 06:33N 24°24' E 118°06'6 2.9
2016-Aug-24 04:31N 24°21' E 118°12'0 0.1
2016-Aug-24 03:28N 24°20' E 118°12'0 0.1
2016-Aug-24 02:33N 24°20' E 118°12'8 8.0
2016-Aug-24 01:32N 24°20' E 118°21'1010.4
2016-Aug-24 00:33N 24°21' E 118°32'1111.0
2016-Aug-23 23:32N 24°25' E 118°44'  
2016-Aug-18 20:21N 24°36' E 119°16'911.7
2016-Aug-18 19:33N 24°33' E 119°06'1211.2
2016-Aug-18 18:31N 24°29' E 118°54'1110.6
2016-Aug-18 17:31N 24°25' E 118°44'1110.3
2016-Aug-18 16:28N 24°22' E 118°32'9 9.5
2016-Aug-18 15:30N 24°20' E 118°22'8 8.9
2016-Aug-18 14:33N 24°21' E 118°13'9 8.6
2016-Aug-18 13:33N 24°25' E 118°05'7 6.9
2016-Aug-18 12:33N 24°32' E 118°05'1 0.8
2016-Aug-18 11:30N 24°32' E 118°05'0 0.0
2016-Aug-18 10:30N 24°32' E 118°05'0 0.0
2016-Aug-18 09:27N 24°32' E 118°05'0 0.0
2016-Aug-18 08:30N 24°32' E 118°05'0 0.0
2016-Aug-18 07:27N 24°32' E 118°05'0 0.0
2016-Aug-18 06:30N 24°32' E 118°05'0 0.0
2016-Aug-18 05:33N 24°32' E 118°05'0 0.0
2016-Aug-18 04:30N 24°32' E 118°05'0 0.0
2016-Aug-18 03:27N 24°32' E 118°05'0 0.0
2016-Aug-18 02:30N 24°32' E 118°05'0 0.0
2016-Aug-18 01:33N 24°32' E 118°05'0 0.0
2016-Aug-18 00:30N 24°32' E 118°05'0 0.0
2016-Aug-17 23:33N 24°32' E 118°05'0 0.0
2016-Aug-17 22:21N 24°32' E 118°05'0 0.0
2016-Aug-17 21:33N 24°32' E 118°05'0 0.0
2016-Aug-17 20:33N 24°32' E 118°05'0 0.0
2016-Aug-17 19:30N 24°32' E 118°05'0 0.0
2016-Aug-17 18:24N 24°32' E 118°05'0 0.0
2016-Aug-17 17:33N 24°32' E 118°05'0 0.0
2016-Aug-17 16:30N 24°32' E 118°05'0 0.0
2016-Aug-17 15:30N 24°32' E 118°05'0 0.0
2016-Aug-17 14:24N 24°32' E 118°05'0 0.0
2016-Aug-17 13:12N 24°32' E 118°05'0 0.0
2016-Aug-17 12:30N 24°32' E 118°05'0 0.0
2016-Aug-17 11:24N 24°32' E 118°05'0 0.0
2016-Aug-17 10:30N 24°32' E 118°05'0 0.0
2016-Aug-17 09:33N 24°32' E 118°05'0 0.0
2016-Aug-17 08:30N 24°32' E 118°05'0 0.0
2016-Aug-17 07:30N 24°32' E 118°05'0 0.0
2016-Aug-17 06:30N 24°32' E 118°05'0 0.0
2016-Aug-17 05:30N 24°32' E 118°05'2 2.5
2016-Aug-17 04:33N 24°30' E 118°04'9 8.9
2016-Aug-17 03:33N 24°22' E 118°08'8 7.7
2016-Aug-17 02:33N 24°21' E 118°17'9 9.4
2016-Aug-17 01:33N 24°21' E 118°27'1111.4
2016-Aug-17 00:33N 24°24' E 118°39'2710.8
2016-Aug-16 22:05N 24°33' E 119°06'610.5
2016-Aug-16 21:32N 24°35' E 119°12'  
Track history (hours):
 
Tides and Currents Weather Stations Pressure Air Temp Water Temp Dewpoint Dewpoint Depression Visibility Wind Speed Wind Dir Waves Ship Positions

Long Hua

Last reported at 2016-Aug-26 21:29 UTC. Time now 2016-Aug-29 05:24 UTC.
Position N 24°36' E 119°16'.

Length 180 m; draft 9.3 m.

Type: Cargo ship. MMSI: 477622800.

Date/timePositionNaut miles runAvg speedWind from/ knotsBaromVisibWave heightAir tempDewpointWater temp
2016-Aug-26 21:29N 24°36' E 119°16'1510.7
2016-Aug-26 20:07N 24°31' E 119°01'610.4
2016-Aug-26 19:33N 24°29' E 118°54'1211.2
2016-Aug-26 18:28N 24°25' E 118°42'1010.8
2016-Aug-26 17:33N 24°21' E 118°32'1111.2
2016-Aug-26 16:33N 24°21' E 118°20'1110.9
2016-Aug-26 15:33N 24°22' E 118°08'6 5.6
2016-Aug-26 14:32N 24°25' E 118°03'0 0.0
2016-Aug-26 13:29N 24°25' E 118°03'0 0.0
2016-Aug-26 12:32N 24°25' E 118°03'0 0.0
2016-Aug-26 11:32N 24°25' E 118°03'0 0.0
2016-Aug-26 10:32N 24°25' E 118°03'0 0.0
2016-Aug-26 09:32N 24°25' E 118°03'0 0.0
2016-Aug-26 08:32N 24°25' E 118°03'0 0.0
2016-Aug-26 07:33N 24°25' E 118°03'0 0.0
2016-Aug-26 06:32N 24°25' E 118°03'0 0.0
2016-Aug-26 04:32N 24°25' E 118°03'0 0.0
2016-Aug-26 03:32N 24°25' E 118°03'0 0.0
2016-Aug-26 02:33N 24°25' E 118°03'0 0.0
2016-Aug-26 01:32N 24°25' E 118°03'0 0.0
2016-Aug-26 00:26N 24°25' E 118°03'0 0.0
2016-Aug-25 23:32N 24°25' E 118°03'0 0.0
2016-Aug-25 22:32N 24°25' E 118°03'0 0.0
2016-Aug-25 21:32N 24°25' E 118°03'0 0.0
2016-Aug-25 20:32N 24°25' E 118°03'0 0.0
2016-Aug-25 19:32N 24°25' E 118°03'0 0.0
2016-Aug-25 18:32N 24°25' E 118°03'0 0.0
2016-Aug-25 17:32N 24°25' E 118°03'0 0.0
2016-Aug-25 16:32N 24°25' E 118°03'0 0.0
2016-Aug-25 15:32N 24°25' E 118°03'0 0.0
2016-Aug-25 14:32N 24°25' E 118°03'0 0.0
2016-Aug-25 13:32N 24°25' E 118°03'0 0.0
2016-Aug-25 12:32N 24°25' E 118°03'0 0.0
2016-Aug-25 11:32N 24°25' E 118°03'0 0.0
2016-Aug-25 10:32N 24°25' E 118°03'0 0.0
2016-Aug-25 09:32N 24°25' E 118°03'0 0.0
2016-Aug-25 08:32N 24°25' E 118°03'0 0.0
2016-Aug-25 07:32N 24°25' E 118°03'0 0.0
2016-Aug-25 06:32N 24°25' E 118°03'0 0.0
2016-Aug-25 04:32N 24°25' E 118°03'0 0.0
2016-Aug-25 03:32N 24°25' E 118°03'0 0.0
2016-Aug-25 02:32N 24°25' E 118°03'0 0.0
2016-Aug-25 01:32N 24°25' E 118°03'0 0.0
2016-Aug-25 00:32N 24°25' E 118°03'0 0.0
2016-Aug-24 23:32N 24°25' E 118°03'0 0.0
2016-Aug-24 22:32N 24°25' E 118°03'0 0.0
2016-Aug-24 21:32N 24°25' E 118°03'0 0.0
2016-Aug-24 20:32N 24°25' E 118°03'0 0.0
2016-Aug-24 19:32N 24°25' E 118°03'0 0.0
2016-Aug-24 18:32N 24°25' E 118°03'0 0.0
2016-Aug-24 17:32N 24°25' E 118°03'0 0.0
2016-Aug-24 16:32N 24°25' E 118°03'0 0.0
2016-Aug-24 15:32N 24°25' E 118°03'0 0.0
2016-Aug-24 14:32N 24°25' E 118°03'0 0.0
2016-Aug-24 13:29N 24°25' E 118°03'0 0.0
2016-Aug-24 12:32N 24°25' E 118°03'0 0.0
2016-Aug-24 11:32N 24°25' E 118°03'0 0.0
2016-Aug-24 10:32N 24°25' E 118°03'0 0.0
2016-Aug-24 09:32N 24°25' E 118°03'0 0.0
2016-Aug-24 08:32N 24°25' E 118°03'0 0.0
2016-Aug-24 07:32N 24°25' E 118°03'4 3.8
2016-Aug-24 06:33N 24°24' E 118°06'6 2.9
2016-Aug-24 04:31N 24°21' E 118°12'0 0.1
2016-Aug-24 03:28N 24°20' E 118°12'0 0.1
2016-Aug-24 02:33N 24°20' E 118°12'8 8.0
2016-Aug-24 01:32N 24°20' E 118°21'1010.4
2016-Aug-24 00:33N 24°21' E 118°32'1111.0
2016-Aug-23 23:32N 24°25' E 118°44'  
2016-Aug-18 20:21N 24°36' E 119°16'911.7
2016-Aug-18 19:33N 24°33' E 119°06'1211.2
2016-Aug-18 18:31N 24°29' E 118°54'1110.6
2016-Aug-18 17:31N 24°25' E 118°44'1110.3
2016-Aug-18 16:28N 24°22' E 118°32'9 9.5
2016-Aug-18 15:30N 24°20' E 118°22'8 8.9
2016-Aug-18 14:33N 24°21' E 118°13'9 8.6
2016-Aug-18 13:33N 24°25' E 118°05'7 6.9
2016-Aug-18 12:33N 24°32' E 118°05'1 0.8
2016-Aug-18 11:30N 24°32' E 118°05'0 0.0
2016-Aug-18 10:30N 24°32' E 118°05'0 0.0
2016-Aug-18 09:27N 24°32' E 118°05'0 0.0
2016-Aug-18 08:30N 24°32' E 118°05'0 0.0
2016-Aug-18 07:27N 24°32' E 118°05'0 0.0
2016-Aug-18 06:30N 24°32' E 118°05'0 0.0
2016-Aug-18 05:33N 24°32' E 118°05'0 0.0
2016-Aug-18 04:30N 24°32' E 118°05'0 0.0
2016-Aug-18 03:27N 24°32' E 118°05'0 0.0
2016-Aug-18 02:30N 24°32' E 118°05'0 0.0
2016-Aug-18 01:33N 24°32' E 118°05'0 0.0
2016-Aug-18 00:30N 24°32' E 118°05'0 0.0
2016-Aug-17 23:33N 24°32' E 118°05'0 0.0
2016-Aug-17 22:21N 24°32' E 118°05'0 0.0
2016-Aug-17 21:33N 24°32' E 118°05'0 0.0
2016-Aug-17 20:33N 24°32' E 118°05'0 0.0
2016-Aug-17 19:30N 24°32' E 118°05'0 0.0
2016-Aug-17 18:24N 24°32' E 118°05'0 0.0
2016-Aug-17 17:33N 24°32' E 118°05'0 0.0
2016-Aug-17 16:30N 24°32' E 118°05'0 0.0
2016-Aug-17 15:30N 24°32' E 118°05'0 0.0
2016-Aug-17 14:24N 24°32' E 118°05'0 0.0
2016-Aug-17 13:12N 24°32' E 118°05'0 0.0
2016-Aug-17 12:30N 24°32' E 118°05'0 0.0
2016-Aug-17 11:24N 24°32' E 118°05'0 0.0
2016-Aug-17 10:30N 24°32' E 118°05'0 0.0
2016-Aug-17 09:33N 24°32' E 118°05'0 0.0
2016-Aug-17 08:30N 24°32' E 118°05'0 0.0
2016-Aug-17 07:30N 24°32' E 118°05'0 0.0
2016-Aug-17 06:30N 24°32' E 118°05'0 0.0
2016-Aug-17 05:30N 24°32' E 118°05'2 2.5
2016-Aug-17 04:33N 24°30' E 118°04'9 8.9
2016-Aug-17 03:33N 24°22' E 118°08'8 7.7
2016-Aug-17 02:33N 24°21' E 118°17'9 9.4
2016-Aug-17 01:33N 24°21' E 118°27'1111.4
2016-Aug-17 00:33N 24°24' E 118°39'2710.8
2016-Aug-16 22:05N 24°33' E 119°06'610.5
2016-Aug-16 21:32N 24°35' E 119°12'  

Dump ship's entire track history